createdAt,value
2024-03-15T00:03:26.583Z,95846.78
2024-03-15T00:08:29.392Z,95855.72
2024-03-15T00:13:32.412Z,95851.66
2024-03-15T00:18:38.235Z,95856.81
2024-03-15T00:23:41.080Z,95845.28
2024-03-15T00:28:43.821Z,95842.50
2024-03-15T00:33:46.689Z,95831.94
2024-03-15T00:38:49.541Z,95835.25
2024-03-15T00:43:52.711Z,95825.94
2024-03-15T00:48:55.498Z,95826.81
2024-03-15T00:53:58.217Z,95825.19
2024-03-15T00:59:00.936Z,95824.06
2024-03-15T01:04:05.117Z,95823.88
2024-03-15T01:09:08.262Z,95808.72
2024-03-15T01:14:11.129Z,95813.41
2024-03-15T01:19:14.794Z,95820.50
2024-03-15T01:24:18.080Z,95815.22
2024-03-15T01:29:20.845Z,95805.09
2024-03-15T01:34:23.998Z,95812.69
2024-03-15T01:39:26.849Z,95807.25
2024-03-15T01:44:30.113Z,95809.75
2024-03-15T01:49:32.846Z,95799.25
2024-03-15T01:54:35.626Z,95803.94
2024-03-15T01:59:38.372Z,95797.50
2024-03-15T02:04:41.523Z,95798.31
2024-03-15T02:09:44.323Z,95797.06
2024-03-15T02:14:49.494Z,95793.63
2024-03-15T02:19:52.259Z,95800.53
2024-03-15T02:24:55.024Z,95805.00
2024-03-15T02:29:57.788Z,95803.94
2024-03-15T02:35:02.957Z,95796.47
2024-03-15T02:40:10.701Z,95798.97
2024-03-15T02:45:13.534Z,95803.44
2024-03-15T02:50:16.388Z,95799.41
2024-03-15T02:55:19.781Z,95791.69
2024-03-15T03:00:22.816Z,95814.50
2024-03-15T03:05:25.621Z,95817.44
2024-03-15T03:10:29.253Z,95819.31
2024-03-15T03:15:32.038Z,95820.34
2024-03-15T03:20:34.900Z,95821.22
2024-03-15T03:25:37.642Z,95815.94
2024-03-15T03:30:40.450Z,95818.81
2024-03-15T03:35:43.222Z,95808.25
2024-03-15T03:40:45.954Z,95818.56
2024-03-15T03:45:48.730Z,95824.00
2024-03-15T03:50:51.750Z,95809.34
2024-03-15T03:55:54.476Z,95820.13
2024-03-15T04:00:57.348Z,95823.22
2024-03-15T04:06:00.523Z,95821.66
2024-03-15T04:11:03.403Z,95818.47
2024-03-15T04:16:07.610Z,95817.88
2024-03-15T04:21:11.914Z,95814.84
2024-03-15T04:26:14.781Z,95815.28
2024-03-15T04:31:17.703Z,95809.44
2024-03-15T04:36:20.445Z,95816.75
2024-03-15T04:41:24.192Z,95816.16
2024-03-15T04:46:26.933Z,95820.84
2024-03-15T04:51:29.680Z,95827.56
2024-03-15T04:56:32.423Z,95829.44
2024-03-15T05:01:35.178Z,95831.88
2024-03-15T05:06:37.908Z,95831.09
2024-03-15T05:11:41.635Z,95837.78
2024-03-15T05:16:53.952Z,95838.19
2024-03-15T05:21:56.694Z,95833.72
2024-03-15T05:27:00.062Z,95830.69
2024-03-15T05:32:04.548Z,95835.38
2024-03-15T05:37:08.051Z,95836.41
2024-03-15T05:42:10.802Z,95840.28
2024-03-15T05:47:13.689Z,95837.00
2024-03-15T05:52:16.682Z,95832.16
2024-03-15T05:57:19.501Z,95848.56
2024-03-15T06:02:22.363Z,95853.59
2024-03-15T06:07:25.102Z,95851.91
2024-03-15T06:12:28.920Z,95857.50
2024-03-15T06:17:32.673Z,95861.06
2024-03-15T06:22:35.476Z,95865.00
2024-03-15T06:27:40.408Z,95869.13
2024-03-15T06:32:43.300Z,95860.25
2024-03-15T06:37:46.700Z,95865.41
2024-03-15T06:43:10.741Z,95862.63
2024-03-15T06:48:18.889Z,95856.63
2024-03-15T06:53:21.871Z,95852.88
2024-03-15T06:58:25.025Z,95851.09
2024-03-15T07:03:28.928Z,95859.22
2024-03-15T07:08:31.853Z,95868.66
2024-03-15T07:13:34.590Z,95868.25
2024-03-15T07:18:37.485Z,95867.84
2024-03-15T07:23:40.778Z,95868.44
2024-03-15T07:28:45.355Z,95877.09
2024-03-15T07:33:48.147Z,95881.19
2024-03-15T07:38:52.982Z,95886.88
2024-03-15T07:43:55.904Z,95891.50
2024-03-15T07:48:59.165Z,95896.78
2024-03-15T07:54:01.935Z,95902.63
2024-03-15T07:59:04.795Z,95895.06
2024-03-15T08:04:10.233Z,95899.88
2024-03-15T08:09:13.548Z,95897.78
2024-03-15T08:14:16.906Z,95904.03
2024-03-15T08:19:19.997Z,95900.91
2024-03-15T08:24:23.031Z,95892.88
2024-03-15T08:29:27.170Z,95896.59
2024-03-15T08:34:30.417Z,95893.72
2024-03-15T08:39:33.235Z,95899.09
2024-03-15T08:44:36.011Z,95897.72
2024-03-15T08:49:39.069Z,95894.91
2024-03-15T08:54:42.202Z,95896.81
2024-03-15T08:59:44.946Z,95894.41
2024-03-15T09:04:48.554Z,95895.88
2024-03-15T09:09:51.333Z,95886.06
2024-03-15T09:14:55.383Z,95895.41
2024-03-15T09:19:58.858Z,95897.97
2024-03-15T09:25:01.787Z,95900.53
2024-03-15T09:30:17.428Z,95897.41
2024-03-15T09:35:20.630Z,95893.47
2024-03-15T09:40:24.796Z,95897.72
2024-03-15T09:45:28.112Z,95897.19
2024-03-15T09:50:32.208Z,95899.91
2024-03-15T09:55:35.562Z,95892.34
2024-03-15T10:00:38.882Z,95886.72
2024-03-15T10:05:41.645Z,95889.25
2024-03-15T10:10:45.803Z,95882.53
2024-03-15T10:15:49.074Z,95889.00
2024-03-15T10:20:55.739Z,95885.91
2024-03-15T10:25:58.522Z,95874.97
2024-03-15T10:31:01.421Z,95876.84
2024-03-15T10:36:09.417Z,95887.81
2024-03-15T10:41:13.790Z,95882.75
2024-03-15T10:46:16.605Z,95884.34
2024-03-15T10:51:19.413Z,95875.25
2024-03-15T10:56:22.388Z,95873.03
2024-03-15T11:01:25.505Z,95873.91
2024-03-15T11:06:40.663Z,95873.28
2024-03-15T11:11:43.509Z,95867.44
2024-03-15T11:16:46.339Z,95871.34
2024-03-15T11:21:50.083Z,95858.34
2024-03-15T11:26:53.030Z,95854.63
2024-03-15T11:31:55.773Z,95858.06
2024-03-15T11:36:58.509Z,95846.00
2024-03-15T11:42:04.856Z,95843.13
2024-03-15T11:47:07.625Z,95839.59
2024-03-15T11:52:10.549Z,95836.13
2024-03-15T11:57:13.419Z,95836.84
2024-03-15T12:02:16.840Z,95830.78
2024-03-15T12:07:19.904Z,95824.84
2024-03-15T12:12:26.846Z,95826.91
2024-03-15T12:17:29.827Z,95818.75
2024-03-15T12:22:32.583Z,95824.56
2024-03-15T12:27:36.690Z,95817.16
2024-03-15T12:32:39.575Z,95815.03
2024-03-15T12:37:42.696Z,95814.78
2024-03-15T12:42:45.543Z,95810.50
2024-03-15T12:47:48.332Z,95811.13
2024-03-15T12:52:51.153Z,95795.94
2024-03-15T12:57:54.614Z,95796.44
2024-03-15T13:02:57.583Z,95793.16
2024-03-15T13:08:00.339Z,95782.22
2024-03-15T13:13:05.148Z,95782.03
2024-03-15T13:18:08.339Z,95779.44
2024-03-15T13:23:11.318Z,95764.56
2024-03-15T13:28:14.575Z,95764.03
2024-03-15T13:33:18.149Z,95769.25
2024-03-15T13:38:21.461Z,95775.59
2024-03-15T13:43:25.210Z,95760.88
2024-03-15T13:48:29.456Z,95749.53
2024-03-15T13:53:32.265Z,95762.06
2024-03-15T13:58:34.984Z,95760.22
2024-03-15T14:03:37.750Z,95761.44
2024-03-15T14:08:40.488Z,95762.47
2024-03-15T14:13:43.210Z,95764.88
2024-03-15T14:18:46.769Z,95768.66
2024-03-15T14:23:51.136Z,95782.00
2024-03-15T14:28:53.864Z,95814.38
2024-03-15T14:33:57.787Z,95818.78
2024-03-15T14:39:01.043Z,95843.66
2024-03-15T14:44:06.794Z,95860.28
2024-03-15T14:49:09.918Z,95847.88
2024-03-15T14:54:12.754Z,95854.28
2024-03-15T14:59:17.520Z,95865.91
2024-03-15T15:04:21.626Z,95856.88
2024-03-15T15:09:26.400Z,95848.91
2024-03-15T15:14:29.877Z,95853.31
2024-03-15T15:19:32.710Z,95850.28
2024-03-15T15:24:35.563Z,95847.16
2024-03-15T15:29:38.339Z,95841.34
2024-03-15T15:34:41.997Z,95833.19
2024-03-15T15:39:44.757Z,95848.59
2024-03-15T15:44:47.532Z,95856.91
2024-03-15T15:49:50.309Z,95846.78
2024-03-15T15:54:53.097Z,95851.06
2024-03-15T15:59:55.983Z,95853.22
2024-03-15T16:04:59.116Z,95871.97
2024-03-15T16:10:02.719Z,95859.56
2024-03-15T16:15:08.145Z,95870.00
2024-03-15T16:20:14.219Z,95869.75
2024-03-15T16:25:17.133Z,95869.22
2024-03-15T16:30:20.805Z,95882.25
2024-03-15T16:35:23.590Z,95872.41
2024-03-15T16:40:26.372Z,95881.06
2024-03-15T16:45:29.307Z,95890.88
2024-03-15T16:50:32.065Z,95885.16
2024-03-15T16:55:37.969Z,95886.25
2024-03-15T17:00:40.908Z,95889.81
2024-03-15T17:05:43.687Z,95884.72
2024-03-15T17:10:48.005Z,95888.97
2024-03-15T17:15:53.117Z,95898.13
2024-03-15T17:20:57.673Z,95904.63
2024-03-15T17:26:03.017Z,95915.03
2024-03-15T17:31:06.793Z,95912.44
2024-03-15T17:36:09.652Z,95908.22
2024-03-15T17:41:12.780Z,95907.34
2024-03-15T17:46:15.550Z,95900.53
2024-03-15T17:51:18.410Z,95902.44
2024-03-15T17:56:22.367Z,95912.31
2024-03-15T18:01:25.170Z,95907.53
2024-03-15T18:06:27.997Z,95924.13
2024-03-15T18:11:30.874Z,95927.56
2024-03-15T18:16:34.673Z,95952.38
2024-03-15T18:21:37.565Z,95956.56
2024-03-15T18:26:40.342Z,95972.47
2024-03-15T18:31:43.080Z,95959.16
2024-03-15T18:36:45.842Z,95943.94
2024-03-15T18:41:48.598Z,95939.91
2024-03-15T18:46:51.322Z,95950.41
2024-03-15T18:51:54.108Z,95948.59
2024-03-15T18:56:57.857Z,95960.91
2024-03-15T19:02:02.876Z,95957.78
2024-03-15T19:07:05.742Z,95952.94
2024-03-15T19:12:08.698Z,95957.13
2024-03-15T19:17:15.620Z,95954.41
2024-03-15T19:22:18.365Z,95954.31
2024-03-15T19:27:24.550Z,95964.88
2024-03-15T19:32:28.668Z,95969.97
2024-03-15T19:37:31.694Z,95965.53
2024-03-15T19:42:34.480Z,95971.81
2024-03-15T19:47:37.318Z,95967.13
2024-03-15T19:52:40.115Z,95978.34
2024-03-15T19:57:42.985Z,95980.81
2024-03-15T20:02:45.979Z,95985.94
2024-03-15T20:07:48.743Z,95971.56
2024-03-15T20:12:51.520Z,95971.63
2024-03-15T20:17:54.370Z,95963.09
2024-03-15T20:22:57.307Z,95968.00
2024-03-15T20:28:00.114Z,95962.56
2024-03-15T20:33:02.925Z,95961.34
2024-03-15T20:38:05.778Z,95972.41
2024-03-15T20:43:09.082Z,95965.75
2024-03-15T20:48:12.390Z,95974.38
2024-03-15T20:53:15.330Z,95981.69
2024-03-15T20:58:19.231Z,95984.78
2024-03-15T21:03:22.116Z,95994.16
2024-03-15T21:08:24.874Z,95990.31
2024-03-15T21:13:27.593Z,95991.94
2024-03-15T21:18:30.403Z,95987.78
2024-03-15T21:23:33.163Z,95988.59
2024-03-15T21:28:35.897Z,95994.13
2024-03-15T21:33:38.716Z,95991.47
2024-03-15T21:38:41.545Z,95986.97
2024-03-15T21:43:44.304Z,95987.91
2024-03-15T21:48:47.402Z,95994.50
2024-03-15T21:53:50.146Z,95980.88
2024-03-15T21:58:52.913Z,95997.47
2024-03-15T22:03:55.658Z,95995.06
2024-03-15T22:08:58.582Z,95986.53
2024-03-15T22:14:07.027Z,95982.16
2024-03-15T22:19:13.745Z,95982.06
2024-03-15T22:24:16.541Z,95978.72
2024-03-15T22:29:20.593Z,95983.09
2024-03-15T22:34:23.335Z,95975.63
2024-03-15T22:39:26.274Z,95969.16
2024-03-15T22:44:29.061Z,95977.09
2024-03-15T22:49:32.063Z,95975.63
2024-03-15T22:54:34.869Z,95977.56
2024-03-15T22:59:37.663Z,95983.91
2024-03-15T23:04:41.551Z,95977.66
2024-03-15T23:09:44.450Z,95979.38
2024-03-15T23:14:47.629Z,95980.28
2024-03-15T23:19:50.683Z,95979.03
2024-03-15T23:24:53.768Z,95972.56
2024-03-15T23:29:56.556Z,95974.63
2024-03-15T23:35:00.831Z,95962.09
2024-03-15T23:40:05.531Z,95967.06
2024-03-15T23:45:08.511Z,95968.69
2024-03-15T23:50:11.410Z,95958.63
2024-03-15T23:55:14.294Z,95961.53
